createdAt,value
2022-11-28T08:47:13.557Z,9.40
2022-11-28T08:49:40.308Z,10.10
2022-11-28T08:52:07.135Z,10.50
2022-11-28T08:54:33.885Z,11.47
2022-11-28T08:57:01.410Z,8.90
2022-11-28T08:59:28.292Z,9.57
2022-11-28T09:01:55.263Z,9.03
2022-11-28T09:04:22.397Z,9.80
2022-11-28T09:06:49.148Z,9.97
2022-11-28T09:09:15.790Z,9.83
2022-11-28T09:11:42.479Z,11.07
2022-11-28T09:14:09.105Z,11.07
2022-11-28T09:16:35.723Z,11.30
2022-11-28T09:19:02.402Z,10.83
2022-11-28T09:21:29.037Z,9.53
2022-11-28T09:23:56.293Z,11.53
2022-11-28T09:26:24.604Z,9.80
2022-11-28T09:28:51.380Z,7.97
2022-11-28T09:31:18.899Z,7.93
2022-11-28T09:33:46.336Z,7.57
2022-11-28T09:36:21.065Z,8.47
2022-11-28T09:38:47.736Z,7.13
2022-11-28T09:41:29.499Z,6.90
2022-11-28T09:44:00.597Z,7.30
2022-11-28T09:46:33.305Z,7.40
2022-11-28T09:49:03.735Z,7.87
2022-11-28T09:51:41.952Z,8.00
2022-11-28T09:54:17.274Z,11.57
2022-11-28T09:56:47.646Z,9.07
2022-11-28T09:59:26.404Z,8.47
2022-11-28T10:02:12.316Z,6.27
2022-11-28T10:04:44.923Z,7.43
2022-11-28T10:07:29.871Z,6.50
2022-11-28T10:10:15.188Z,7.13
2022-11-28T10:12:59.058Z,6.70
2022-11-28T10:15:40.849Z,8.60
2022-11-28T10:18:32.396Z,7.13
2022-11-28T10:21:03.080Z,7.57
2022-11-28T10:23:40.929Z,7.97
2022-11-28T10:26:08.276Z,7.07
2022-11-28T10:28:37.110Z,8.63
2022-11-28T10:31:13.557Z,8.83
2022-11-28T10:33:45.160Z,7.33
2022-11-28T10:36:24.787Z,8.03
2022-11-28T10:38:51.423Z,9.67
2022-11-28T10:41:28.843Z,10.07
2022-11-28T10:44:19.946Z,8.97
2022-11-28T10:47:15.527Z,13.50
2022-11-28T10:49:56.838Z,9.77
2022-11-28T10:52:35.353Z,10.13
2022-11-28T10:55:18.483Z,8.70
2022-11-28T10:58:06.471Z,7.90
2022-11-28T11:00:36.261Z,8.37
2022-11-28T11:03:18.429Z,8.90
2022-11-28T11:05:45.410Z,10.57
2022-11-28T11:08:26.434Z,8.73
2022-11-28T11:11:06.387Z,10.93
2022-11-28T11:13:36.376Z,9.87
2022-11-28T11:16:06.333Z,8.80
2022-11-28T11:18:38.500Z,9.47
2022-11-28T11:21:19.184Z,7.93
2022-11-28T11:23:47.037Z,8.87
2022-11-28T11:26:28.418Z,8.50
2022-11-28T11:28:55.282Z,7.80
2022-11-28T11:31:24.016Z,8.17
2022-11-28T11:33:53.875Z,8.53
2022-11-28T11:36:24.087Z,9.40
2022-11-28T11:38:51.189Z,8.23
2022-11-28T11:41:29.591Z,8.67
2022-11-28T11:43:57.327Z,8.03
2022-11-28T11:46:24.006Z,9.33
2022-11-28T11:48:52.678Z,9.07
2022-11-28T11:51:25.130Z,10.83
2022-11-28T11:54:01.110Z,11.50
2022-11-28T11:56:30.390Z,8.60
2022-11-28T11:58:58.281Z,10.07
2022-11-28T12:01:26.406Z,10.73
2022-11-28T12:03:57.079Z,11.37
2022-11-28T12:06:28.604Z,10.63
2022-11-28T12:09:08.556Z,9.93
2022-11-28T12:11:47.126Z,13.20
2022-11-28T12:14:24.447Z,9.67
2022-11-28T12:17:32.657Z,10.37
2022-11-28T12:20:23.372Z,9.50
2022-11-28T12:23:03.201Z,9.47
2022-11-28T12:26:00.803Z,13.03
2022-11-28T12:29:11.703Z,12.87
2022-11-28T12:31:47.215Z,14.27
2022-11-28T12:34:26.579Z,13.37
2022-11-28T12:37:02.303Z,16.50
2022-11-28T12:39:44.302Z,17.67
2022-11-28T12:42:16.662Z,15.80
2022-11-28T12:45:04.224Z,18.23
2022-11-28T12:47:49.679Z,18.93
2022-11-28T12:50:35.712Z,16.47
2022-11-28T12:53:34.840Z,19.03
2022-11-28T12:56:49.766Z,17.73
2022-11-28T12:59:53.565Z,18.17
2022-11-28T13:02:44.405Z,17.97
2022-11-28T13:05:25.848Z,17.60
2022-11-28T13:08:27.934Z,18.33
2022-11-28T13:11:38.060Z,16.37
2022-11-28T13:14:04.599Z,17.10
2022-11-28T13:16:45.606Z,14.70
2022-11-28T13:19:22.323Z,17.77
2022-11-28T13:22:04.489Z,18.50
2022-11-28T13:24:40.178Z,19.70
2022-11-28T13:27:24.156Z,20.83
2022-11-28T13:29:58.725Z,21.40
2022-11-28T13:32:43.767Z,20.07
2022-11-28T13:35:13.752Z,21.63
2022-11-28T13:40:41.180Z,23.20
2022-11-28T13:43:10.615Z,23.83
2022-11-28T13:45:46.653Z,25.30
2022-11-28T13:49:13.379Z,24.10
2022-11-28T13:51:30.192Z,20.40
2022-11-28T13:54:20.233Z,21.83
2022-11-28T13:57:08.564Z,22.83
2022-11-28T13:59:35.812Z,21.57
2022-11-28T14:02:05.529Z,21.40
2022-11-28T14:04:32.993Z,20.33
2022-11-28T14:07:03.513Z,23.13
2022-11-28T14:10:15.212Z,21.77
2022-11-28T14:12:56.051Z,22.70
2022-11-28T14:15:39.971Z,20.30
2022-11-28T14:18:31.527Z,23.43
2022-11-28T14:21:04.663Z,21.67
2022-11-28T14:23:46.571Z,19.97
2022-11-28T14:26:23.476Z,20.17
2022-11-28T14:28:51.824Z,23.03
2022-11-28T14:31:32.892Z,22.53
2022-11-28T14:34:02.649Z,22.13
2022-11-28T14:36:35.932Z,22.27
2022-11-28T14:39:16.298Z,21.40
2022-11-28T14:42:02.462Z,29.53
2022-11-28T14:44:47.679Z,22.40
2022-11-28T14:47:21.464Z,22.13
2022-11-28T14:49:48.727Z,23.70
2022-11-28T14:52:38.632Z,23.47
2022-11-28T14:55:10.321Z,22.70
2022-11-28T14:57:53.971Z,22.97
2022-11-28T15:00:25.129Z,23.20
2022-11-28T15:03:13.525Z,22.70
2022-11-28T15:05:54.303Z,23.00
2022-11-28T15:09:01.995Z,23.07
2022-11-28T15:11:33.757Z,25.70
2022-11-28T15:14:10.147Z,27.73
2022-11-28T15:16:46.614Z,27.33
2022-11-28T15:19:34.494Z,33.63
2022-11-28T15:22:02.828Z,30.27
2022-11-28T15:24:31.569Z,31.80
2022-11-28T15:27:18.944Z,32.10
2022-11-28T15:29:53.937Z,30.13
2022-11-28T15:32:20.808Z,40.03
2022-11-28T15:35:02.052Z,33.00
2022-11-28T15:37:31.433Z,24.67
2022-11-28T15:39:59.310Z,27.73
2022-11-28T15:42:31.300Z,28.67
2022-11-28T15:45:08.716Z,24.77
2022-11-28T15:47:35.630Z,27.03
2022-11-28T15:50:17.144Z,25.63
2022-11-28T15:53:04.165Z,26.40
2022-11-28T15:55:33.124Z,29.30
2022-11-28T15:58:21.064Z,26.43
2022-11-28T16:00:55.683Z,27.13
2022-11-28T16:03:25.179Z,26.73
2022-11-28T16:05:53.166Z,29.07
2022-11-28T16:08:37.108Z,28.47
2022-11-28T16:11:05.781Z,29.33
2022-11-28T16:13:33.969Z,28.93
2022-11-28T16:16:04.411Z,30.93
2022-11-28T16:18:31.499Z,29.63
2022-11-28T16:21:00.288Z,31.73
2022-11-28T16:23:33.838Z,31.67
2022-11-28T16:26:01.263Z,32.37
2022-11-28T16:28:31.249Z,38.83
2022-11-28T16:30:58.030Z,33.47
2022-11-28T16:33:42.250Z,32.07
2022-11-28T16:36:17.008Z,36.37
2022-11-28T16:38:44.365Z,30.27
2022-11-28T16:41:20.979Z,33.07
2022-11-28T16:43:50.136Z,31.10
2022-11-28T16:46:24.549Z,38.67
2022-11-28T16:48:59.074Z,33.07
2022-11-28T16:51:25.719Z,30.47
2022-11-28T16:53:55.168Z,32.13
2022-11-28T16:56:30.569Z,36.50
2022-11-28T16:59:11.723Z,31.57
2022-11-28T17:01:38.612Z,29.10
2022-11-28T17:04:05.679Z,29.10
2022-11-28T17:06:34.421Z,32.73
2022-11-28T17:09:01.761Z,33.30
2022-11-28T17:11:30.237Z,33.37
2022-11-28T17:13:57.803Z,32.03
2022-11-28T17:16:29.695Z,31.40
2022-11-28T17:25:02.098Z,28.70
2022-11-28T17:27:28.789Z,29.77
2022-11-28T17:29:55.477Z,35.30
2022-11-28T17:49:57.689Z,28.77
2022-11-28T17:52:30.227Z,27.07
2022-11-28T17:55:06.841Z,29.80
2022-11-28T17:57:35.290Z,28.70
2022-11-28T18:00:05.147Z,35.13
2022-11-28T18:02:40.926Z,37.83
2022-11-28T18:05:09.084Z,30.53
2022-11-28T18:07:39.672Z,28.37
2022-11-28T18:52:58.705Z,26.73
2022-11-28T18:55:26.006Z,28.90
2022-11-28T18:57:52.604Z,26.70
2022-11-28T19:00:20.004Z,27.13
2022-11-28T19:02:48.262Z,26.73
2022-11-28T19:05:14.932Z,25.20
2022-11-28T19:07:41.748Z,31.43
2022-11-28T19:10:09.119Z,28.07
2022-11-28T19:12:36.900Z,26.33
2022-11-28T19:15:03.976Z,29.33
2022-11-28T19:17:30.942Z,27.57
2022-11-28T19:19:57.596Z,36.07
2022-11-28T19:22:24.239Z,30.33
2022-11-28T19:24:50.796Z,37.97
2022-11-28T19:27:17.439Z,38.10
2022-11-28T19:29:44.423Z,33.13
2022-11-28T19:32:12.581Z,29.73
2022-11-28T19:34:39.147Z,24.77
2022-11-28T19:37:05.736Z,25.10
2022-11-28T19:39:32.467Z,23.77
2022-11-28T19:41:59.724Z,24.93
2022-11-28T19:44:28.997Z,24.67
2022-11-28T19:46:56.293Z,27.27
2022-11-28T19:49:23.820Z,29.03
2022-11-28T19:51:50.989Z,27.30
2022-11-28T19:54:19.774Z,27.40
2022-11-28T19:56:47.842Z,29.80
2022-11-28T19:59:14.572Z,28.37
2022-11-28T20:01:41.248Z,27.93
2022-11-28T20:04:08.322Z,26.03
2022-11-28T20:06:35.304Z,28.00
2022-11-28T20:09:06.350Z,30.43
2022-11-28T20:11:34.492Z,28.77
2022-11-28T20:14:06.948Z,28.73
2022-11-28T20:16:35.802Z,28.60
2022-11-28T20:19:04.242Z,30.40
2022-11-28T20:21:31.837Z,31.03
2022-11-28T20:24:04.443Z,28.50
2022-11-28T20:26:39.929Z,28.97
2022-11-28T20:29:07.557Z,30.07
2022-11-28T20:31:41.943Z,30.70
2022-11-28T20:34:08.942Z,28.97
2022-11-28T20:36:36.310Z,31.07
2022-11-28T20:39:05.005Z,30.63
2022-11-28T20:41:31.828Z,39.43
2022-11-28T20:44:00.664Z,35.17
2022-11-28T20:46:30.365Z,33.17
2022-11-28T20:48:58.814Z,30.97
2022-11-28T20:51:29.892Z,32.93
2022-11-28T20:53:57.908Z,31.60
2022-11-28T20:56:27.823Z,35.43
2022-11-28T20:58:54.436Z,30.57
2022-11-28T21:01:23.837Z,33.53
2022-11-28T21:03:50.840Z,31.63
2022-11-28T21:06:17.812Z,30.23
2022-11-28T21:08:44.624Z,31.07
2022-11-28T21:11:30.586Z,31.10
2022-11-28T21:14:01.054Z,32.80
2022-11-28T21:16:29.450Z,31.50
2022-11-28T21:18:57.340Z,33.90
2022-11-28T21:21:29.294Z,31.07
2022-11-28T21:23:57.544Z,31.13
2022-11-28T21:26:30.159Z,30.53
2022-11-28T21:28:59.925Z,28.67
2022-11-28T21:31:30.697Z,31.43
2022-11-28T21:33:59.066Z,30.60
2022-11-28T21:36:27.097Z,28.80
2022-11-28T21:38:55.980Z,30.53
2022-11-28T21:41:23.815Z,30.63
2022-11-28T21:43:50.471Z,32.10
2022-11-28T21:46:17.476Z,32.37
2022-11-28T21:48:44.458Z,27.37
2022-11-28T21:51:37.456Z,33.87
2022-11-28T21:54:04.344Z,30.50
2022-11-28T21:56:32.072Z,30.57
2022-11-28T23:20:40.787Z,33.67
2022-11-28T23:23:07.416Z,32.73
2022-11-28T23:25:35.858Z,35.20
2022-11-28T23:28:02.968Z,34.63
2022-11-28T23:30:29.553Z,34.10
2022-11-28T23:32:56.216Z,33.57
2022-11-28T23:35:22.894Z,33.23
2022-11-28T23:37:49.970Z,33.07
2022-11-28T23:40:16.667Z,31.70
2022-11-28T23:42:43.444Z,31.50
2022-11-28T23:45:10.999Z,33.33
2022-11-28T23:47:38.126Z,34.33
2022-11-28T23:50:05.935Z,33.10
2022-11-28T23:52:32.869Z,32.07
2022-11-28T23:54:59.833Z,32.27
2022-11-28T23:57:26.461Z,33.93
2022-11-28T23:59:53.102Z,33.20
